Time;durP1;ratioP1;P1;durP2;ratioP2;P2;SDS_P1;SDS_P2;PMS_P1;PMS_P2;Temp;Humidity;BMP_temperature;BMP_pressure;BME280_temperature;BME280_humidity;BME280_pressure;Samples;Min_cycle;Max_cycle;Signal;HPM_P1;HPM_P2
2022/04/25 00:02:20;;;;;;;4.10;1.67;;;;;;;;;;4982402;28;20274;-45
2022/04/25 00:04:46;;;;;;;4.23;1.67;;;;;;;;;;4975819;28;20514;-45
2022/04/25 00:07:12;;;;;;;2.53;1.63;;;;;;;;;;4975547;28;20513;-44
2022/04/25 00:09:39;;;;;;;3.93;1.90;;;;;;;;;;4976551;28;20184;-44
2022/04/25 00:12:06;;;;;;;5.30;2.00;;;;;;;;;;4977115;28;20216;-45
2022/04/25 00:14:32;;;;;;;4.57;1.90;;;;;;;;;;4974926;28;20189;-45
2022/04/25 00:16:58;;;;;;;3.97;1.87;;;;;;;;;;4976175;28;20425;-45
2022/04/25 00:19:25;;;;;;;3.73;1.40;;;;;;;;;;4977987;28;20204;-45
2022/04/25 00:21:51;;;;;;;2.20;1.40;;;;;;;;;;4976985;28;20180;-47
2022/04/25 00:24:17;;;;;;;2.77;1.50;;;;;;;;;;4976468;28;20831;-45
2022/04/25 00:26:43;;;;;;;5.37;2.07;;;;;;;;;;4979178;28;20441;-45
2022/04/25 00:29:10;;;;;;;5.03;1.53;;;;;;;;;;4975736;28;20558;-45
2022/04/25 00:31:36;;;;;;;2.73;1.63;;;;;;;;;;4975695;28;20777;-45
2022/04/25 00:34:02;;;;;;;2.10;1.53;;;;;;;;;;4972224;28;20847;-44
2022/04/25 00:36:28;;;;;;;5.27;1.87;;;;;;;;;;4975986;28;20616;-45
2022/04/25 00:38:54;;;;;;;3.73;1.53;;;;;;;;;;4976163;28;20526;-44
2022/04/25 00:41:20;;;;;;;2.60;1.60;;;;;;;;;;4976901;28;20510;-45
2022/04/25 00:43:47;;;;;;;2.20;1.40;;;;;;;;;;4972564;28;20427;-45
2022/04/25 00:46:23;;;;;;;4.07;1.40;;;;;;;;;;4978887;28;20184;-45
2022/04/25 00:48:49;;;;;;;2.40;1.97;;;;;;;;;;4975980;28;21005;-45
2022/04/25 00:51:16;;;;;;;2.97;1.80;;;;;;;;;;4971595;28;20310;-45
2022/04/25 00:53:43;;;;;;;5.30;1.90;;;;;;;;;;4978200;28;20698;-45
2022/04/25 00:56:10;;;;;;;4.30;2.83;;;;;;;;;;4978065;28;20212;-45
2022/04/25 00:58:36;;;;;;;7.73;3.23;;;;;;;;;;4973701;28;20651;-45
2022/04/25 01:01:03;;;;;;;3.57;2.83;;;;;;;;;;4975899;28;20785;-45
2022/04/25 01:03:29;;;;;;;7.43;2.90;;;;;;;;;;4976781;28;20315;-44
2022/04/25 01:05:55;;;;;;;5.87;3.37;;;;;;;;;;4976787;28;20963;-44
2022/04/25 01:08:21;;;;;;;4.93;2.83;;;;;;;;;;4975617;28;20428;-44
2022/04/25 01:10:47;;;;;;;4.27;3.07;;;;;;;;;;4974799;28;20782;-44
2022/04/25 01:13:14;;;;;;;4.20;2.93;;;;;;;;;;4977766;28;22149;-44
2022/04/25 01:15:40;;;;;;;4.80;2.80;;;;;;;;;;4974876;28;20792;-44
2022/04/25 01:18:06;;;;;;;4.77;2.70;;;;;;;;;;4973878;28;20471;-44
2022/04/25 01:20:33;;;;;;;4.47;2.70;;;;;;;;;;4972729;28;20819;-44
2022/04/25 01:27:15;;;;;;;3.93;2.60;;;;;;;;;;4978860;28;20505;-42
2022/04/25 01:28:30;;;;;;;4.03;2.37;;;;;;;;;;4977561;28;21376;-44
2022/04/25 01:30:56;;;;;;;7.80;2.73;;;;;;;;;;4980519;28;20431;-44
2022/04/25 01:33:22;;;;;;;5.70;2.30;;;;;;;;;;4973960;28;20959;-44
2022/04/25 01:35:48;;;;;;;3.80;2.63;;;;;;;;;;4974350;28;20428;-44
2022/04/25 01:38:14;;;;;;;5.07;2.40;;;;;;;;;;4976051;28;20443;-44
2022/04/25 01:40:40;;;;;;;4.00;2.33;;;;;;;;;;4972821;28;20796;-44
2022/04/25 01:43:06;;;;;;;4.23;2.10;;;;;;;;;;4977387;28;21003;-44
2022/04/25 01:45:32;;;;;;;5.73;2.43;;;;;;;;;;4975211;28;20415;-45
2022/04/25 01:47:59;;;;;;;2.40;2.00;;;;;;;;;;4978659;28;21104;-45
2022/04/25 01:50:25;;;;;;;5.37;2.03;;;;;;;;;;4980605;28;20860;-45
2022/04/25 01:52:51;;;;;;;2.70;2.20;;;;;;;;;;4978250;28;20872;-45
2022/04/25 01:55:17;;;;;;;3.63;2.00;;;;;;;;;;4979032;28;20212;-45
2022/04/25 01:57:43;;;;;;;2.80;1.83;;;;;;;;;;4977384;28;20444;-45
2022/04/25 02:00:09;;;;;;;3.23;1.90;;;;;;;;;;4983458;28;20451;-45
2022/04/25 02:02:36;;;;;;;4.43;2.30;;;;;;;;;;4980902;28;20423;-45
2022/04/25 02:05:03;;;;;;;5.43;2.27;;;;;;;;;;4977530;28;20975;-45
2022/04/25 02:07:30;;;;;;;2.60;1.80;;;;;;;;;;4981022;28;20431;-45
2022/04/25 02:09:56;;;;;;;3.77;1.97;;;;;;;;;;4977964;28;20436;-44
2022/04/25 02:12:23;;;;;;;2.20;1.70;;;;;;;;;;4975814;28;20424;-45
2022/04/25 02:14:49;;;;;;;4.20;2.07;;;;;;;;;;4978545;28;20424;-44
2022/04/25 02:17:15;;;;;;;3.87;2.50;;;;;;;;;;4980988;28;20436;-45
2022/04/25 02:19:44;;;;;;;6.67;2.60;;;;;;;;;;4977183;28;20764;-45
2022/04/25 02:22:11;;;;;;;3.73;2.50;;;;;;;;;;4977612;28;20952;-45
2022/04/25 02:24:38;;;;;;;3.70;2.83;;;;;;;;;;4977995;28;20971;-45
2022/04/25 02:27:04;;;;;;;6.30;2.67;;;;;;;;;;4975781;28;20985;-45
2022/04/25 02:29:34;;;;;;;4.20;3.20;;;;;;;;;;4975139;28;21439;-45
2022/04/25 02:32:01;;;;;;;3.80;2.80;;;;;;;;;;4977326;28;20423;-45
2022/04/25 02:34:29;;;;;;;5.93;3.10;;;;;;;;;;4978362;28;21217;-45
2022/04/25 02:36:55;;;;;;;6.03;3.30;;;;;;;;;;4975912;28;20891;-45
2022/04/25 02:39:22;;;;;;;4.57;2.73;;;;;;;;;;4976528;28;21281;-45
2022/04/25 02:41:48;;;;;;;5.13;2.47;;;;;;;;;;4985584;28;20655;-45
2022/04/25 02:44:14;;;;;;;5.63;2.33;;;;;;;;;;4976268;28;20713;-45
2022/04/25 02:46:41;;;;;;;4.13;2.00;;;;;;;;;;4975649;28;20957;-45
2022/04/25 02:49:07;;;;;;;2.77;1.80;;;;;;;;;;4980838;28;20430;-45
2022/04/25 02:51:33;;;;;;;2.67;1.90;;;;;;;;;;4981349;28;20810;-45
2022/04/25 02:53:59;;;;;;;7.43;3.17;;;;;;;;;;4977237;28;20985;-45
2022/04/25 02:56:25;;;;;;;4.87;2.47;;;;;;;;;;4978159;28;20169;-45
2022/04/25 02:58:51;;;;;;;4.03;2.40;;;;;;;;;;4975738;28;20837;-45
2022/04/25 03:01:17;;;;;;;5.57;2.30;;;;;;;;;;4981258;28;20627;-45
2022/04/25 03:03:43;;;;;;;3.37;2.10;;;;;;;;;;4978961;28;20759;-45
2022/04/25 03:06:10;;;;;;;4.10;2.00;;;;;;;;;;4982098;28;20461;-44
2022/04/25 03:08:37;;;;;;;4.53;2.17;;;;;;;;;;4979194;28;20359;-46
2022/04/25 03:11:04;;;;;;;3.87;2.10;;;;;;;;;;4975851;28;20697;-45
2022/04/25 03:13:31;;;;;;;4.53;2.40;;;;;;;;;;4973883;28;20505;-45
2022/04/25 03:15:57;;;;;;;3.60;2.30;;;;;;;;;;4977050;28;21381;-45
2022/04/25 03:18:24;;;;;;;4.93;2.67;;;;;;;;;;4977730;28;20541;-45
2022/04/25 03:20:51;;;;;;;4.00;2.83;;;;;;;;;;4978006;28;20461;-45
2022/04/25 03:23:18;;;;;;;2.50;2.23;;;;;;;;;;4975641;28;20295;-45
2022/04/25 03:25:45;;;;;;;2.50;2.30;;;;;;;;;;4978198;28;20172;-45
2022/04/25 03:28:11;;;;;;;4.27;2.60;;;;;;;;;;4975763;28;20542;-45
2022/04/25 03:30:37;;;;;;;5.17;2.50;;;;;;;;;;4976868;28;20932;-46
2022/04/25 03:33:03;;;;;;;3.83;2.47;;;;;;;;;;4975684;28;20414;-45
2022/04/25 03:35:33;;;;;;;5.63;2.87;;;;;;;;;;4979154;28;20438;-45
2022/04/25 03:37:59;;;;;;;4.53;2.70;;;;;;;;;;4975508;28;20526;-46
2022/04/25 03:40:26;;;;;;;3.20;2.80;;;;;;;;;;4975742;28;20924;-47
2022/04/25 03:42:55;;;;;;;3.30;2.90;;;;;;;;;;4980216;28;20412;-46
2022/04/25 03:45:22;;;;;;;4.50;2.90;;;;;;;;;;4976452;28;20849;-45
2022/04/25 03:47:48;;;;;;;3.87;3.30;;;;;;;;;;4974561;28;20412;-44
2022/04/25 03:50:15;;;;;;;4.67;2.70;;;;;;;;;;4976279;28;20428;-45
2022/04/25 03:52:45;;;;;;;5.83;2.73;;;;;;;;;;4979611;28;20725;-45
2022/04/25 03:57:57;;;;;;;3.87;2.50;;;;;;;;;;4974781;28;20413;-45
2022/04/25 04:00:23;;;;;;;4.33;3.03;;;;;;;;;;4975665;28;21325;-45
2022/04/25 04:02:50;;;;;;;3.00;2.40;;;;;;;;;;4978400;28;20424;-46
2022/04/25 04:05:16;;;;;;;4.67;2.33;;;;;;;;;;4977608;28;20768;-45
2022/04/25 04:07:42;;;;;;;3.67;2.43;;;;;;;;;;4974356;28;21338;-46
2022/04/25 04:10:09;;;;;;;3.67;2.80;;;;;;;;;;4976741;28;20975;-45
2022/04/25 04:12:35;;;;;;;5.30;2.97;;;;;;;;;;4979209;28;21011;-46
2022/04/25 04:15:02;;;;;;;6.20;3.20;;;;;;;;;;4976414;28;20547;-46
2022/04/25 04:17:29;;;;;;;5.10;3.00;;;;;;;;;;4974232;28;21203;-46
2022/04/25 04:19:55;;;;;;;4.80;2.80;;;;;;;;;;4978186;28;20458;-46
2022/04/25 04:22:22;;;;;;;3.40;2.60;;;;;;;;;;4980416;28;20610;-46
2022/04/25 04:24:48;;;;;;;5.87;2.60;;;;;;;;;;4978477;28;20408;-46
2022/04/25 04:27:14;;;;;;;2.93;2.57;;;;;;;;;;4974637;28;20419;-46
2022/04/25 04:29:41;;;;;;;3.37;2.57;;;;;;;;;;4978560;28;20482;-46
2022/04/25 04:32:08;;;;;;;6.93;2.93;;;;;;;;;;4977684;28;20689;-46
2022/04/25 04:34:34;;;;;;;4.70;3.10;;;;;;;;;;4976076;28;21238;-46
2022/04/25 04:37:01;;;;;;;3.73;2.83;;;;;;;;;;4973834;28;20427;-46
2022/04/25 04:39:27;;;;;;;4.83;3.10;;;;;;;;;;4976771;28;21018;-46
2022/04/25 04:41:54;;;;;;;6.27;3.30;;;;;;;;;;4981565;28;21318;-46
2022/04/25 04:44:20;;;;;;;5.07;3.30;;;;;;;;;;4974603;28;20419;-46
2022/04/25 04:46:47;;;;;;;3.40;2.83;;;;;;;;;;4977759;28;20416;-46
2022/04/25 04:49:13;;;;;;;4.10;3.30;;;;;;;;;;4976671;28;21002;-46
2022/04/25 04:51:39;;;;;;;4.80;3.17;;;;;;;;;;4975168;28;20858;-46
2022/04/25 04:54:05;;;;;;;3.80;3.50;;;;;;;;;;4975288;28;20420;-46
2022/04/25 04:56:32;;;;;;;6.53;3.37;;;;;;;;;;4975879;28;20817;-46
2022/04/25 04:59:01;;;;;;;4.20;3.23;;;;;;;;;;4975464;28;20724;-44
2022/04/25 05:01:27;;;;;;;5.17;3.40;;;;;;;;;;4976271;28;20562;-44
2022/04/25 05:03:58;;;;;;;3.57;3.20;;;;;;;;;;4977776;28;20476;-44
2022/04/25 05:06:24;;;;;;;3.83;3.30;;;;;;;;;;4976861;28;20824;-45
2022/04/25 05:08:50;;;;;;;5.03;2.93;;;;;;;;;;5003684;28;20431;-45
2022/04/25 05:11:16;;;;;;;4.53;3.30;;;;;;;;;;4977164;28;20427;-44
2022/04/25 05:13:42;;;;;;;4.40;3.97;;;;;;;;;;4974645;28;20405;-45
2022/04/25 05:16:09;;;;;;;6.37;4.20;;;;;;;;;;4969781;28;21111;-45
2022/04/25 05:18:35;;;;;;;5.87;4.13;;;;;;;;;;4970906;28;20427;-45
2022/04/25 05:21:02;;;;;;;5.13;3.97;;;;;;;;;;4972530;28;20435;-45
2022/04/25 05:23:28;;;;;;;5.40;3.73;;;;;;;;;;4974609;28;20828;-45
2022/04/25 05:25:54;;;;;;;4.80;3.53;;;;;;;;;;4973625;28;20446;-45
2022/04/25 05:28:22;;;;;;;5.80;3.93;;;;;;;;;;4970640;28;20983;-45
2022/04/25 05:30:48;;;;;;;5.43;3.50;;;;;;;;;;4973962;28;20824;-45
2022/04/25 05:33:20;;;;;;;5.70;3.93;;;;;;;;;;4974909;28;20451;-45
2022/04/25 05:35:52;;;;;;;5.00;3.43;;;;;;;;;;4972782;28;20875;-45
2022/04/25 05:38:18;;;;;;;6.37;5.27;;;;;;;;;;4976211;28;20439;-46
2022/04/25 05:40:45;;;;;;;8.67;5.33;;;;;;;;;;4976059;28;20486;-46
2022/04/25 05:43:11;;;;;;;5.93;4.33;;;;;;;;;;4976067;28;20549;-45
2022/04/25 05:45:37;;;;;;;6.77;3.63;;;;;;;;;;4974667;28;20497;-45
2022/04/25 05:51:58;;;;;;;4.93;3.40;;;;;;;;;;4977313;28;20435;-45
2022/04/25 05:53:37;;;;;;;6.73;3.23;;;;;;;;;;4972254;28;20506;-45
2022/04/25 05:56:03;;;;;;;4.13;3.60;;;;;;;;;;4972264;28;20456;-45
2022/04/25 05:58:29;;;;;;;4.77;3.40;;;;;;;;;;4974114;28;20890;-45
2022/04/25 06:00:55;;;;;;;8.17;3.90;;;;;;;;;;4975994;28;20502;-45
2022/04/25 06:03:22;;;;;;;7.67;4.27;;;;;;;;;;4974995;28;20436;-45
2022/04/25 06:05:48;;;;;;;6.37;3.87;;;;;;;;;;4974847;28;20450;-45
2022/04/25 06:08:14;;;;;;;3.87;3.40;;;;;;;;;;4976832;28;20800;-46
2022/04/25 06:10:40;;;;;;;5.60;3.17;;;;;;;;;;4973962;28;20668;-46
2022/04/25 06:13:08;;;;;;;5.47;3.60;;;;;;;;;;4973082;28;20507;-46
2022/04/25 06:15:34;;;;;;;5.03;3.40;;;;;;;;;;4975154;28;20518;-46
2022/04/25 06:18:00;;;;;;;6.13;3.53;;;;;;;;;;5004676;28;20415;-46
2022/04/25 06:20:30;;;;;;;5.57;3.70;;;;;;;;;;4973231;28;20491;-46
2022/04/25 06:22:58;;;;;;;4.90;3.40;;;;;;;;;;4975458;28;20430;-46
2022/04/25 06:25:25;;;;;;;4.17;3.37;;;;;;;;;;4975060;28;20170;-46
2022/04/25 06:27:51;;;;;;;7.30;3.60;;;;;;;;;;4974385;28;21116;-46
2022/04/25 06:30:17;;;;;;;3.63;2.83;;;;;;;;;;4975812;28;20284;-47
2022/04/25 06:32:44;;;;;;;3.17;2.10;;;;;;;;;;4973381;28;20186;-46
2022/04/25 06:35:11;;;;;;;5.07;2.90;;;;;;;;;;4980345;28;20536;-46
2022/04/25 06:37:37;;;;;;;8.33;2.47;;;;;;;;;;4977873;28;20200;-46
2022/04/25 06:40:03;;;;;;;5.70;2.40;;;;;;;;;;4974195;28;20207;-45
2022/04/25 06:42:30;;;;;;;4.73;2.40;;;;;;;;;;4979872;28;20797;-47
2022/04/25 06:44:56;;;;;;;5.50;2.40;;;;;;;;;;4984324;28;20713;-48
2022/04/25 06:47:22;;;;;;;3.80;2.20;;;;;;;;;;4982818;28;20276;-46
2022/04/25 06:49:48;;;;;;;6.47;3.00;;;;;;;;;;4978676;28;21048;-46
2022/04/25 06:52:15;;;;;;;6.23;3.60;;;;;;;;;;4975984;28;20556;-46
2022/04/25 06:54:41;;;;;;;6.53;3.63;;;;;;;;;;4976381;28;20219;-46
2022/04/25 06:57:07;;;;;;;4.83;2.90;;;;;;;;;;4981432;28;20181;-46
2022/04/25 06:59:33;;;;;;;5.47;3.00;;;;;;;;;;4978838;28;20496;-45
2022/04/25 07:02:00;;;;;;;6.33;3.10;;;;;;;;;;4979552;28;20223;-46
2022/04/25 07:04:26;;;;;;;7.77;3.73;;;;;;;;;;4977603;28;20945;-45
2022/04/25 07:06:52;;;;;;;6.73;3.10;;;;;;;;;;4976907;28;20810;-45
2022/04/25 07:09:18;;;;;;;7.27;3.17;;;;;;;;;;4975245;28;20174;-45
2022/04/25 07:11:45;;;;;;;5.83;3.00;;;;;;;;;;4974384;28;20287;-45
2022/04/25 07:14:15;;;;;;;4.73;3.00;;;;;;;;;;4977261;28;20182;-46
2022/04/25 07:16:44;;;;;;;6.73;3.10;;;;;;;;;;4977258;28;20431;-46
2022/04/25 07:19:11;;;;;;;3.23;2.40;;;;;;;;;;4975907;28;20263;-46
2022/04/25 07:29:52;;;;;;;5.53;2.60;;;;;;;;;;4973255;28;20290;-46
2022/04/25 07:32:18;;;;;;;4.03;2.43;;;;;;;;;;4972257;28;20728;-47
2022/04/25 07:34:47;;;;;;;3.07;2.30;;;;;;;;;;4976512;28;20184;-47
2022/04/25 07:37:13;;;;;;;5.77;2.43;;;;;;;;;;4978525;28;20199;-46
2022/04/25 07:39:39;;;;;;;5.50;2.37;;;;;;;;;;4972576;28;20177;-47
2022/04/25 07:42:06;;;;;;;4.93;2.63;;;;;;;;;;4971227;28;20567;-46
2022/04/25 07:44:32;;;;;;;5.53;2.50;;;;;;;;;;4973664;28;20247;-48
2022/04/25 07:46:59;;;;;;;4.80;2.40;;;;;;;;;;4970501;28;20734;-46
2022/04/25 07:49:25;;;;;;;3.90;2.17;;;;;;;;;;4973168;28;20247;-48
2022/04/25 07:51:53;;;;;;;5.37;2.40;;;;;;;;;;4973447;28;20177;-47
2022/04/25 07:54:19;;;;;;;3.93;2.27;;;;;;;;;;4979761;28;20177;-47
2022/04/25 07:56:45;;;;;;;4.20;2.40;;;;;;;;;;4973614;28;20616;-45
2022/04/25 07:59:11;;;;;;;2.93;1.90;;;;;;;;;;4974363;28;20199;-46
2022/04/25 08:01:38;;;;;;;3.43;2.00;;;;;;;;;;4982225;28;20669;-46
2022/04/25 08:04:04;;;;;;;5.37;2.50;;;;;;;;;;4978955;28;20717;-48
2022/04/25 08:06:30;;;;;;;6.43;2.50;;;;;;;;;;4976224;28;20179;-47
2022/04/25 08:08:57;;;;;;;3.83;2.47;;;;;;;;;;4972654;28;21390;-48
2022/04/25 08:11:23;;;;;;;5.03;2.33;;;;;;;;;;4974982;28;20185;-45
2022/04/25 08:19:37;;;;;;;7.97;2.70;;;;;;;;;;4913717;28;20406;-46
2022/04/25 08:22:09;;;;;;;6.17;2.73;;;;;;;;;;4963318;28;20338;-47
2022/04/25 08:24:36;;;;;;;5.67;2.87;;;;;;;;;;4974632;28;20902;-47
2022/04/25 08:27:03;;;;;;;4.67;2.53;;;;;;;;;;4974349;28;20177;-46
2022/04/25 08:29:29;;;;;;;5.57;2.83;;;;;;;;;;4974942;28;20176;-46
2022/04/25 08:31:56;;;;;;;4.63;2.53;;;;;;;;;;4973243;28;20671;-46
2022/04/25 08:34:23;;;;;;;4.57;2.50;;;;;;;;;;4971148;28;21021;-47
2022/04/25 08:36:49;;;;;;;4.90;2.43;;;;;;;;;;4973007;28;20931;-46
2022/04/25 08:39:15;;;;;;;5.47;2.73;;;;;;;;;;4978487;28;20189;-46
2022/04/25 08:41:43;;;;;;;3.60;2.53;;;;;;;;;;4975116;28;20177;-46
2022/04/25 08:44:10;;;;;;;4.30;2.70;;;;;;;;;;4972856;28;20176;-47
2022/04/25 08:46:37;;;;;;;3.60;2.40;;;;;;;;;;4973411;28;20732;-47
2022/04/25 08:49:03;;;;;;;2.90;2.20;;;;;;;;;;4974021;28;20207;-46
2022/04/25 08:51:30;;;;;;;5.73;2.73;;;;;;;;;;4974202;28;20246;-47
2022/04/25 08:53:56;;;;;;;4.83;2.67;;;;;;;;;;4971232;28;20173;-47
2022/04/25 08:56:25;;;;;;;2.93;2.13;;;;;;;;;;4973337;28;20583;-45
2022/04/25 08:58:52;;;;;;;5.50;2.30;;;;;;;;;;4977870;28;20176;-47
2022/04/25 09:01:18;;;;;;;3.80;2.47;;;;;;;;;;4975325;28;20577;-46
2022/04/25 09:03:44;;;;;;;6.43;2.40;;;;;;;;;;4973405;28;20177;-47
2022/04/25 09:06:10;;;;;;;3.47;2.10;;;;;;;;;;4972603;28;20184;-47
2022/04/25 09:08:38;;;;;;;4.13;2.10;;;;;;;;;;4973554;28;20177;-47
2022/04/25 09:13:49;;;;;;;5.73;2.10;;;;;;;;;;4971731;28;20446;-47
2022/04/25 09:16:16;;;;;;;3.30;2.10;;;;;;;;;;4973087;28;20458;-47
2022/04/25 09:18:43;;;;;;;3.07;1.90;;;;;;;;;;4971704;28;20496;-47
2022/04/25 09:21:10;;;;;;;3.57;1.77;;;;;;;;;;4971504;28;20583;-47
2022/04/25 09:23:36;;;;;;;3.23;1.53;;;;;;;;;;4969276;28;20221;-46
2022/04/25 09:26:29;;;;;;;4.60;2.20;;;;;;;;;;4971802;28;20180;-45
2022/04/25 09:28:57;;;;;;;2.23;1.63;;;;;;;;;;4974234;28;20691;-46
2022/04/25 09:31:25;;;;;;;2.70;1.87;;;;;;;;;;4974395;28;20565;-46
2022/04/25 09:33:51;;;;;;;4.53;2.77;;;;;;;;;;4971802;28;20827;-46
2022/04/25 09:36:17;;;;;;;6.57;3.00;;;;;;;;;;4972547;28;20559;-46
2022/04/25 09:38:44;;;;;;;4.43;2.20;;;;;;;;;;4972246;28;20713;-46
2022/04/25 09:41:12;;;;;;;4.30;2.50;;;;;;;;;;4974117;28;20605;-46
2022/04/25 09:43:40;;;;;;;4.67;2.37;;;;;;;;;;4973403;28;20396;-47
2022/04/25 09:46:09;;;;;;;4.87;1.90;;;;;;;;;;4975286;28;20173;-48
2022/04/25 09:48:36;;;;;;;3.87;2.20;;;;;;;;;;4971243;28;20168;-48
2022/04/25 09:51:02;;;;;;;4.33;2.37;;;;;;;;;;5000806;28;20211;-48
2022/04/25 09:53:50;;;;;;;7.20;2.30;;;;;;;;;;4969977;28;20177;-48
2022/04/25 09:56:22;;;;;;;3.33;2.30;;;;;;;;;;4969129;28;20399;-48
2022/04/25 09:59:05;;;;;;;3.70;1.47;;;;;;;;;;4969435;28;20184;-46
2022/04/25 10:01:34;;;;;;;3.17;1.73;;;;;;;;;;4971145;28;20181;-47
2022/04/25 10:04:01;;;;;;;3.17;1.70;;;;;;;;;;4967948;28;20177;-47
2022/04/25 10:06:28;;;;;;;3.27;1.57;;;;;;;;;;4971416;28;20200;-46
2022/04/25 10:08:54;;;;;;;3.20;1.50;;;;;;;;;;4970947;28;20177;-46
2022/04/25 10:11:20;;;;;;;3.23;1.37;;;;;;;;;;4975836;28;20380;-46
2022/04/25 10:13:49;;;;;;;2.13;1.20;;;;;;;;;;4976990;28;20609;-46
2022/04/25 10:16:20;;;;;;;1.90;1.20;;;;;;;;;;4977055;28;20816;-46
2022/04/25 10:18:46;;;;;;;2.97;1.50;;;;;;;;;;4978957;28;20709;-46
2022/04/25 10:21:14;;;;;;;2.33;1.47;;;;;;;;;;4977524;28;20319;-46
2022/04/25 10:23:41;;;;;;;2.97;1.73;;;;;;;;;;4976947;28;20591;-46
2022/04/25 10:26:07;;;;;;;5.10;1.40;;;;;;;;;;4975074;28;20636;-46
2022/04/25 10:28:44;;;;;;;2.77;1.40;;;;;;;;;;4976209;28;20189;-46
2022/04/25 10:31:41;;;;;;;3.70;2.50;;;;;;;;;;4953621;28;21043;-46
2022/04/25 10:34:07;;;;;;;3.60;2.33;;;;;;;;;;4964966;28;20244;-46
2022/04/25 10:36:39;;;;;;;2.80;1.97;;;;;;;;;;4970411;28;20177;-45
2022/04/25 10:39:15;;;;;;;5.80;3.30;;;;;;;;;;4976117;28;20177;-46
2022/04/25 10:44:30;;;;;;;7.43;5.03;;;;;;;;;;4976283;28;20176;-46
2022/04/25 10:47:05;;;;;;;4.63;3.07;;;;;;;;;;4974967;28;20188;-46
2022/04/25 10:49:35;;;;;;;9.77;6.47;;;;;;;;;;4996090;28;20299;-46
2022/04/25 10:52:02;;;;;;;3.93;1.37;;;;;;;;;;5003086;28;20208;-46
2022/04/25 10:54:28;;;;;;;5.23;4.70;;;;;;;;;;4973369;28;20185;-46
2022/04/25 10:57:11;;;;;;;19.73;15.23;;;;;;;;;;4974281;28;20933;-46
2022/04/25 10:59:37;;;;;;;3.57;1.60;;;;;;;;;;4973599;28;20270;-46
2022/04/25 11:02:20;;;;;;;2.47;1.30;;;;;;;;;;4977826;28;21001;-46
2022/04/25 11:04:46;;;;;;;10.50;6.50;;;;;;;;;;4978851;28;20684;-45
2022/04/25 11:07:20;;;;;;;66.10;53.13;;;;;;;;;;4977584;28;20263;-45
2022/04/25 11:09:46;;;;;;;3.33;1.50;;;;;;;;;;4977967;28;21019;-45
2022/04/25 11:12:12;;;;;;;1235.33;696.97;;;;;;;;;;4976074;28;20181;-45
2022/04/25 11:14:56;;;;;;;184.87;71.03;;;;;;;;;;4976843;28;20709;-45
2022/04/25 11:17:22;;;;;;;3.57;1.93;;;;;;;;;;4976798;28;20285;-45
2022/04/25 11:19:51;;;;;;;543.63;201.13;;;;;;;;;;4976108;28;21125;-45
2022/04/25 11:22:36;;;;;;;28.87;25.87;;;;;;;;;;4975326;28;21084;-45
2022/04/25 11:25:34;;;;;;;4.13;2.17;;;;;;;;;;4975743;28;20213;-45
2022/04/25 11:28:10;;;;;;;4.17;1.70;;;;;;;;;;4951724;28;20200;-45
2022/04/25 11:30:37;;;;;;;3.10;1.33;;;;;;;;;;4977506;28;20177;-46
2022/04/25 11:33:06;;;;;;;3.50;1.87;;;;;;;;;;4973223;28;20212;-45
2022/04/25 11:35:33;;;;;;;4.57;2.40;;;;;;;;;;4974355;28;21439;-45
2022/04/25 11:37:59;;;;;;;3.03;1.90;;;;;;;;;;4972108;28;20284;-44
2022/04/25 11:40:26;;;;;;;13.53;8.93;;;;;;;;;;4974912;28;21081;-45
2022/04/25 11:42:53;;;;;;;4.07;2.00;;;;;;;;;;4974701;28;20184;-45
2022/04/25 11:45:19;;;;;;;12.77;7.47;;;;;;;;;;4988136;28;20987;-45
2022/04/25 11:47:45;;;;;;;3.57;2.10;;;;;;;;;;4975676;28;20169;-45
2022/04/25 11:50:12;;;;;;;1861.83;973.13;;;;;;;;;;4977449;28;20192;-46
2022/04/25 11:52:48;;;;;;;1999.90;999.90;;;;;;;;;;4976469;28;20247;-45
2022/04/25 11:55:15;;;;;;;1999.90;938.80;;;;;;;;;;4977712;28;20187;-45
2022/04/25 11:57:43;;;;;;;726.10;389.20;;;;;;;;;;4978336;28;20304;-46
2022/04/25 12:00:10;;;;;;;506.20;392.50;;;;;;;;;;4976259;28;20307;-45
2022/04/25 12:02:37;;;;;;;1566.43;290.17;;;;;;;;;;4978662;28;20177;-46
2022/04/25 12:05:07;;;;;;;1090.17;824.03;;;;;;;;;;4975882;28;21037;-46
2022/04/25 12:07:33;;;;;;;5.97;4.73;;;;;;;;;;4979247;28;20177;-46
2022/04/25 12:15:34;;;;;;;1400.50;424.87;;;;;;;;;;4975495;28;21076;-45
2022/04/25 12:18:23;;;;;;;643.40;422.83;;;;;;;;;;4978211;28;20250;-49
2022/04/25 12:20:51;;;;;;;7.70;5.10;;;;;;;;;;4973448;28;20535;-46
2022/04/25 12:23:21;;;;;;;8.13;4.73;;;;;;;;;;4977718;28;20715;-46
2022/04/25 12:25:48;;;;;;;529.37;380.00;;;;;;;;;;4994934;28;20181;-46
2022/04/25 12:28:15;;;;;;;2.53;1.73;;;;;;;;;;4975179;28;20195;-45
2022/04/25 12:30:54;;;;;;;245.67;129.83;;;;;;;;;;4974847;28;20199;-46
2022/04/25 12:33:24;;;;;;;235.53;145.73;;;;;;;;;;4978260;28;21318;-45
2022/04/25 12:35:51;;;;;;;4.73;3.30;;;;;;;;;;4975794;28;21059;-46
2022/04/25 12:38:53;;;;;;;5.17;2.30;;;;;;;;;;4975644;28;20192;-46
2022/04/25 12:41:23;;;;;;;3.37;1.60;;;;;;;;;;4938588;28;21388;-46
2022/04/25 12:43:50;;;;;;;2.37;1.10;;;;;;;;;;4971999;28;20252;-46
2022/04/25 12:46:17;;;;;;;2.90;1.20;;;;;;;;;;4973982;28;20176;-46
2022/04/25 12:48:59;;;;;;;2.10;1.20;;;;;;;;;;4974795;28;20541;-46
2022/04/25 12:51:33;;;;;;;1.90;1.07;;;;;;;;;;4978052;28;20188;-46
2022/04/25 12:53:59;;;;;;;1.33;1.00;;;;;;;;;;4975103;28;20177;-46
2022/04/25 12:56:26;;;;;;;4.60;3.70;;;;;;;;;;4973941;28;20274;-45
2022/04/25 12:58:53;;;;;;;1.73;1.20;;;;;;;;;;4974860;28;20180;-46
2022/04/25 13:01:36;;;;;;;3.30;1.40;;;;;;;;;;4971448;28;20326;-46
2022/04/25 13:04:05;;;;;;;9.53;5.73;;;;;;;;;;4975370;28;20609;-45
2022/04/25 13:06:31;;;;;;;2.87;1.57;;;;;;;;;;4972100;28;20178;-45
2022/04/25 13:08:57;;;;;;;4.37;1.47;;;;;;;;;;4961881;28;20303;-45
2022/04/25 13:11:23;;;;;;;3.23;1.40;;;;;;;;;;4956510;28;20195;-45
2022/04/25 13:13:51;;;;;;;4.50;2.17;;;;;;;;;;4956326;28;20216;-45
2022/04/25 13:16:17;;;;;;;6.90;2.30;;;;;;;;;;4970667;28;20177;-45
2022/04/25 13:18:43;;;;;;;4.40;2.40;;;;;;;;;;4974661;28;20185;-46
2022/04/25 13:21:13;;;;;;;2.30;1.30;;;;;;;;;;4972935;28;20193;-45
2022/04/25 13:23:40;;;;;;;4.93;2.43;;;;;;;;;;4977403;28;20938;-45
2022/04/25 13:26:06;;;;;;;5.53;3.50;;;;;;;;;;4973441;28;20231;-45
2022/04/25 13:28:32;;;;;;;2.10;1.30;;;;;;;;;;4969891;28;20184;-45
2022/04/25 13:30:58;;;;;;;2.63;1.23;;;;;;;;;;4977163;28;20889;-44
2022/04/25 13:33:24;;;;;;;2.33;1.30;;;;;;;;;;4973653;28;20181;-46
2022/04/25 13:35:50;;;;;;;5.73;1.70;;;;;;;;;;4973370;28;20184;-46
2022/04/25 13:38:16;;;;;;;3.07;1.43;;;;;;;;;;4974767;28;20298;-46
2022/04/25 13:40:42;;;;;;;2.57;1.40;;;;;;;;;;4973817;28;20197;-46
2022/04/25 13:43:09;;;;;;;3.83;1.50;;;;;;;;;;4973394;28;20251;-45
2022/04/25 13:45:35;;;;;;;3.13;1.53;;;;;;;;;;4971394;28;20292;-46
2022/04/25 13:48:02;;;;;;;2.43;1.30;;;;;;;;;;4973829;28;21050;-46
2022/04/25 13:50:28;;;;;;;5.00;1.47;;;;;;;;;;4973924;28;20204;-46
2022/04/25 13:52:54;;;;;;;5.07;1.43;;;;;;;;;;4974955;28;20166;-46
2022/04/25 13:55:21;;;;;;;6.77;1.70;;;;;;;;;;4971760;28;20181;-45
2022/04/25 13:57:47;;;;;;;3.30;1.50;;;;;;;;;;4971319;28;20184;-45
2022/04/25 14:00:13;;;;;;;4.67;1.63;;;;;;;;;;4971797;28;20334;-45
2022/04/25 14:05:25;;;;;;;3.47;1.40;;;;;;;;;;4972453;28;20238;-45
2022/04/25 14:07:53;;;;;;;2.90;1.40;;;;;;;;;;4972145;28;20172;-44
2022/04/25 14:10:19;;;;;;;2.33;1.30;;;;;;;;;;4972909;28;20210;-42
2022/04/25 14:12:45;;;;;;;9.80;4.93;;;;;;;;;;4973251;28;20180;-45
2022/04/25 14:15:12;;;;;;;3.13;1.60;;;;;;;;;;4969970;28;20726;-43
2022/04/25 14:17:38;;;;;;;5.73;1.40;;;;;;;;;;4973936;28;20356;-44
2022/04/25 14:20:04;;;;;;;17.43;13.47;;;;;;;;;;4974777;28;20985;-44
2022/04/25 14:22:30;;;;;;;10.50;8.40;;;;;;;;;;4971302;28;20196;-45
2022/04/25 14:24:56;;;;;;;8.57;4.90;;;;;;;;;;4972539;28;20178;-44
2022/04/25 14:27:22;;;;;;;24.40;14.33;;;;;;;;;;4972363;28;20174;-44
2022/04/25 14:29:48;;;;;;;48.57;33.37;;;;;;;;;;4968196;28;20177;-44
2022/04/25 14:32:15;;;;;;;14.70;10.17;;;;;;;;;;4975571;28;20181;-43
2022/04/25 14:34:41;;;;;;;3.40;1.87;;;;;;;;;;4970833;28;20286;-45
2022/04/25 14:37:07;;;;;;;5.23;2.77;;;;;;;;;;4969123;28;20263;-44
2022/04/25 14:39:34;;;;;;;20.50;17.30;;;;;;;;;;4971506;28;21044;-44
2022/04/25 14:42:00;;;;;;;2.90;1.80;;;;;;;;;;4969709;28;20166;-45
2022/04/25 14:44:32;;;;;;;4.03;1.60;;;;;;;;;;4967385;28;20181;-45
2022/04/25 14:46:58;;;;;;;3.33;1.50;;;;;;;;;;4969218;28;20162;-45
2022/04/25 14:54:20;;;;;;;8.30;3.77;;;;;;;;;;4972624;28;20169;-45
2022/04/25 14:54:56;;;;;;;10.03;7.47;;;;;;;;;;4964917;28;20206;-44
2022/04/25 14:57:26;;;;;;;2.47;1.70;;;;;;;;;;4972434;28;20300;-45
2022/04/25 14:59:52;;;;;;;6.23;3.80;;;;;;;;;;4974776;28;20434;-45
2022/04/25 15:02:18;;;;;;;8.33;4.67;;;;;;;;;;4968662;28;20165;-45
2022/04/25 15:04:44;;;;;;;15.13;11.73;;;;;;;;;;5001982;28;20259;-45
2022/04/25 15:07:10;;;;;;;4.13;2.33;;;;;;;;;;4976528;28;20180;-45
2022/04/25 15:09:36;;;;;;;3.90;3.23;;;;;;;;;;4968842;28;20180;-45
2022/04/25 15:12:03;;;;;;;3.17;1.53;;;;;;;;;;4968651;28;20166;-43
2022/04/25 15:14:29;;;;;;;5.80;2.40;;;;;;;;;;4976359;28;20249;-44
2022/04/25 15:16:55;;;;;;;4.17;2.00;;;;;;;;;;4972222;28;20177;-44
2022/04/25 15:19:21;;;;;;;5.97;2.67;;;;;;;;;;4974389;28;20529;-44
2022/04/25 15:21:48;;;;;;;5.07;1.90;;;;;;;;;;4974083;28;20180;-45
2022/04/25 15:24:14;;;;;;;4.83;1.60;;;;;;;;;;4978984;28;20180;-43